Terminal Aerodrome Forecast
Issued by NWS Shreveport, LA

Home | Current Version | Previous Version | Text Only | Print | Product List | Glossary On
Versions: 1 2 3 4 5 6 7 8 9 10 11 12
000
FTUS44 KSHV 192300
TAFTYR
TAF
KTYR 192325Z 2000/2024 14003KT P6SM FEW060 BKN250
     FM200100 13005KT P6SM FEW150 BKN250
     FM201600 16008KT P6SM SCT040 BKN250
     FM201800 17008KT P6SM SCT045 BKN250=

USA.gov is the U.S. government's official web portal to all federal, state and local government web resources and services.